• Join FlightAware (Why Join?)
  • Login
  • US Flag 
03:00PM EDT


 

Airport Tracker/Info


-or-


 

Live Flight TrackerFlight Track Log ✈ C-GMOT ✈ 20-Sep-2013 ✈ CYKZ - CYQA

Flight Track Log - Related Links

Times and Time Zones

All times are in EDT time to prevent confusion due to time zone crossing. See the C-GMOT flight status page for this flight to view local times or setup timezone preferences in your user account.

Time Position Orientation Groundspeed Altitude Reporting Facility
EDT Latitude Longitude Course Direction KTS MPH feet Rate Location/Type
03:27PM 43.8333 -79.3167 353° North 110 127 1,400  Level Toronto Center
03:28PM 43.8500 -79.2833 55° Northeast 120 138 1,900 420 Climbing Toronto Center
03:29PM 43.8833 -79.2667 20° North 140 161 2,300 420 Climbing Toronto Center
03:30PM 43.9167 -79.2333 36° Northeast 140 161 2,800 300 Climbing Toronto Center
03:31PM 43.9500 -79.2000 36° Northeast 150 173 3,000 60 Climbing Toronto Center
03:32PM 44.1258 -79.3544 16° North  Level Estimated
03:32PM 43.9833 -79.1667 36° Northeast 160 184 3,000  Level Toronto Center
03:33PM 44.1695 -79.3621 353° North  Level FlightAware Approximate
03:33PM 44.0333 -79.1667 360° North 160 184 3,500  Level Toronto Center
03:34PM 44.0833 -79.1667 360° North 150 173 4,000 480 Climbing Toronto Center
03:35PM 44.1167 -79.1833 340° North 140 161 4,500 480 Climbing Toronto Center
03:36PM 44.1500 -79.1833 360° North 140 161 5,000 240 Climbing Toronto Center
03:37PM 44.2000 -79.1833 360° North 140 161 5,000  Level Toronto Center
03:38PM 44.2333 -79.2167 324° Northwest 150 173 5,000  Level Toronto Center
03:39PM 44.2833 -79.2167 360° North 150 173 5,000  Level Toronto Center
03:40PM 44.3167 -79.2333 340° North 160 184 5,000  Level Toronto Center
03:41PM 44.3667 -79.2333 360° North 150 173 5,000  Level Toronto Center
03:42PM 44.4000 -79.2667 324° Northwest 160 184 5,000  Level Toronto Center
03:43PM 44.4500 -79.2667 360° North 160 184 5,000  Level Toronto Center
03:44PM 44.5000 -79.2833 347° North 160 184 5,000  Level Toronto Center
03:45PM 44.5333 -79.2833 360° North 170 196 5,000  Level Toronto Center
03:46PM 44.5833 -79.3000 347° North 170 196 5,000  Level Toronto Center
03:47PM 44.6333 -79.3000 360° North 170 196 5,000  Level Toronto Center
03:48PM 44.6833 -79.3333 335° Northwest 170 196 5,000  Level Toronto Center
03:49PM 44.7167 -79.3333 360° North 170 196 5,000 -180 Level Toronto Center
03:50PM 44.7667 -79.3500 347° North 170 196 4,700 -300 Descending Toronto Center
03:52PM 44.8096 -79.3372 12° North  Level FlightAware Approximate
03:59PM 44.9667 -79.3000 North  Level FlightAware Approximate
04:00PM 44.9747 -79.3033 North  Level Estimated
04:01PM 44.9747 -79.3033 North  Level Estimated
04:02PM 44.9747 -79.3033 North  Level Estimated
04:03PM 44.9747 -79.3033 North  Level Estimated
04:04PM 44.9747 -79.3033 North  Level Estimated
04:05PM 44.9747 -79.3033 North  Level Estimated
04:06PM 44.9747 -79.3033 North  Level Estimated
04:07PM 44.9747 -79.3033 North  Level Estimated
04:08PM 44.9747 -79.3033 North  Level Estimated
04:09PM 44.9747 -79.3033 North  Level Estimated
04:10PM 44.9747 -79.3033 North  Level Estimated
04:11PM 44.9747 -79.3033 North  Level Estimated
04:12PM 44.9747 -79.3033 North  Level Estimated
04:13PM 44.9747 -79.3033 North  Level Estimated